createdAt,value
2022-10-20T00:00:06.850Z,100912.03
2022-10-20T00:02:08.471Z,100909.47
2022-10-20T00:04:10.084Z,100899.94
2022-10-20T00:06:20.281Z,100905.09
2022-10-20T00:08:21.915Z,100900.78
2022-10-20T00:10:23.534Z,100900.78
2022-10-20T00:12:25.184Z,100893.00
2022-10-20T00:14:26.844Z,100873.91
2022-10-20T00:16:31.254Z,100873.03
2022-10-20T00:18:33.260Z,100861.78
2022-10-20T00:20:34.872Z,100856.56
2022-10-20T00:22:36.767Z,100847.03
2022-10-20T00:24:38.593Z,100835.78
2022-10-20T00:26:40.459Z,100826.22
2022-10-20T00:28:43.163Z,100832.31
2022-10-20T00:30:44.957Z,100826.25
2022-10-20T00:32:47.989Z,100835.78
2022-10-20T00:34:49.548Z,100842.72
2022-10-20T00:36:51.531Z,100842.72
2022-10-20T00:39:00.745Z,100845.28
2022-10-20T00:41:05.340Z,100842.72
2022-10-20T00:43:13.137Z,100827.97
2022-10-20T00:45:17.619Z,100820.16
2022-10-20T00:47:54.647Z,100816.66
2022-10-20T00:50:01.169Z,100816.72
2022-10-20T00:52:03.088Z,100817.59
2022-10-20T00:54:12.011Z,100815.84
2022-10-20T00:56:14.697Z,100817.59
2022-10-20T00:58:16.966Z,100825.34
2022-10-20T01:00:18.788Z,100822.78
2022-10-20T01:02:20.607Z,100820.16
2022-10-20T01:04:22.956Z,100817.59
2022-10-20T01:06:24.665Z,100808.94
2022-10-20T01:08:26.315Z,100822.78
2022-10-20T01:10:37.423Z,100823.66
2022-10-20T01:12:54.009Z,100837.56
2022-10-20T01:17:26.383Z,100830.66
2022-10-20T01:20:04.697Z,100824.56
2022-10-20T01:22:09.458Z,100823.69
2022-10-20T01:24:26.257Z,100813.34
2022-10-20T01:26:33.758Z,100807.25
2022-10-20T01:29:07.679Z,100806.38
2022-10-20T01:31:26.694Z,100804.69
2022-10-20T01:33:39.914Z,100803.81
2022-10-20T01:36:00.399Z,100809.00
2022-10-20T01:38:14.754Z,100812.47
2022-10-20T01:41:05.730Z,100809.00
2022-10-20T01:43:11.934Z,100813.28
2022-10-20T01:45:15.623Z,100809.81
2022-10-20T01:47:18.516Z,100815.88
2022-10-20T01:49:20.364Z,100817.63
2022-10-20T01:51:22.018Z,100818.47
2022-10-20T01:53:23.635Z,100823.66
2022-10-20T01:55:25.755Z,100820.22
2022-10-20T01:57:52.054Z,100809.84
2022-10-20T02:00:17.293Z,100805.50
2022-10-20T02:02:21.556Z,100790.75
2022-10-20T02:04:33.189Z,100788.16
2022-10-20T02:06:37.498Z,100796.84
2022-10-20T02:08:55.824Z,100783.81
2022-10-20T02:11:05.462Z,100772.56
2022-10-20T02:13:10.184Z,100779.50
2022-10-20T02:15:17.261Z,100776.91
2022-10-20T02:17:19.893Z,100766.50
2022-10-20T02:19:25.809Z,100762.16
2022-10-20T02:21:27.818Z,100755.25
2022-10-20T02:23:35.132Z,100756.09
2022-10-20T02:25:40.498Z,100746.59
2022-10-20T02:27:46.727Z,100741.41
2022-10-20T02:29:55.781Z,100748.31
2022-10-20T02:31:58.234Z,100750.91
2022-10-20T02:34:00.015Z,100750.91
2022-10-20T02:36:05.611Z,100754.41
2022-10-20T02:38:07.355Z,100739.66
2022-10-20T02:40:09.473Z,100740.53
2022-10-20T02:42:12.425Z,100737.91
2022-10-20T02:44:14.015Z,100731.84
2022-10-20T02:46:17.308Z,100730.97
2022-10-20T02:48:19.187Z,100730.09
2022-10-20T02:50:20.836Z,100718.81
2022-10-20T02:52:22.490Z,100715.41
2022-10-20T02:54:24.164Z,100715.38
2022-10-20T02:56:27.625Z,100724.88
2022-10-20T02:58:31.998Z,100722.31
2022-10-20T03:00:34.113Z,100721.47
2022-10-20T03:02:35.889Z,100722.34
2022-10-20T03:04:37.481Z,100721.47
2022-10-20T03:06:39.955Z,100719.72
2022-10-20T03:08:42.754Z,100710.19
2022-10-20T03:10:44.458Z,100698.94
2022-10-20T03:12:46.094Z,100698.09
2022-10-20T03:14:47.736Z,100699.78
2022-10-20T03:16:49.583Z,100698.91
2022-10-20T03:18:51.431Z,100696.28
2022-10-20T03:20:54.265Z,100690.22
2022-10-20T03:22:55.970Z,100685.91
2022-10-20T03:24:57.572Z,100679.84
2022-10-20T03:27:06.035Z,100687.63
2022-10-20T03:29:07.853Z,100685.91
2022-10-20T03:31:10.130Z,100687.63
2022-10-20T03:33:11.973Z,100693.72
2022-10-20T03:35:13.721Z,100696.34
2022-10-20T03:37:15.339Z,100698.03
2022-10-20T03:39:17.468Z,100706.78
2022-10-20T03:41:19.118Z,100705.94
2022-10-20T03:43:20.961Z,100706.69
2022-10-20T03:45:22.647Z,100706.75
2022-10-20T03:47:24.379Z,100687.66
2022-10-20T03:49:26.106Z,100680.75
2022-10-20T03:51:27.753Z,100681.59
2022-10-20T03:53:29.928Z,100688.50
2022-10-20T03:55:31.803Z,100698.94
2022-10-20T03:57:33.670Z,100695.47
2022-10-20T03:59:35.551Z,100707.56
2022-10-20T04:01:37.603Z,100696.31
2022-10-20T04:03:39.276Z,100698.94
2022-10-20T04:05:41.126Z,100695.47
2022-10-20T04:07:42.975Z,100692.88
2022-10-20T04:09:44.560Z,100688.50
2022-10-20T04:11:46.247Z,100685.13
2022-10-20T04:13:48.020Z,100688.56
2022-10-20T04:15:49.971Z,100686.81
2022-10-20T04:17:51.556Z,100675.53
2022-10-20T04:19:53.215Z,100670.31
2022-10-20T04:21:54.830Z,100675.50
2022-10-20T04:23:56.544Z,100664.25
2022-10-20T04:25:58.141Z,100658.19
2022-10-20T04:28:00.249Z,100666.91
2022-10-20T04:30:01.914Z,100654.72
2022-10-20T04:32:03.998Z,100652.13
2022-10-20T04:34:05.800Z,100652.16
2022-10-20T04:36:12.000Z,100641.75
2022-10-20T04:38:13.592Z,100631.34
2022-10-20T04:40:15.229Z,100632.19
2022-10-20T04:42:18.180Z,100641.72
2022-10-20T04:44:19.918Z,100635.72
2022-10-20T04:46:21.589Z,100626.16
2022-10-20T04:48:23.554Z,100631.34
2022-10-20T04:50:25.179Z,100636.53
2022-10-20T04:52:28.869Z,100637.41
2022-10-20T04:54:30.495Z,100636.53
2022-10-20T04:56:32.158Z,100622.69
2022-10-20T04:58:34.763Z,100627.00
2022-10-20T05:00:37.776Z,100627.91
2022-10-20T05:02:39.471Z,100625.28
2022-10-20T05:04:41.141Z,100627.00
2022-10-20T05:06:42.732Z,100620.19
2022-10-20T05:08:46.675Z,100614.94
2022-10-20T05:10:48.460Z,100609.69
2022-10-20T05:12:50.124Z,100619.25
2022-10-20T05:14:51.847Z,100607.13
2022-10-20T05:16:57.273Z,100607.94
2022-10-20T05:18:59.150Z,100600.22
2022-10-20T05:21:09.447Z,100588.94
2022-10-20T05:23:11.966Z,100591.50
2022-10-20T05:25:35.138Z,100590.59
2022-10-20T05:27:35.238Z,100586.31
2022-10-20T05:29:36.814Z,100575.00
2022-10-20T05:31:40.600Z,100575.84
2022-10-20T05:33:51.123Z,100568.91
2022-10-20T05:35:52.759Z,100564.56
2022-10-20T05:37:54.643Z,100561.06
2022-10-20T05:39:56.274Z,100560.22
2022-10-20T05:41:57.954Z,100559.41
2022-10-20T05:44:02.293Z,100551.63
2022-10-20T05:46:04.908Z,100555.09
2022-10-20T05:48:06.717Z,100555.09
2022-10-20T05:50:09.594Z,100545.56
2022-10-20T05:52:11.387Z,100537.75
2022-10-20T05:54:13.925Z,100551.63
2022-10-20T05:56:18.724Z,100549.88
2022-10-20T05:58:22.969Z,100542.09
2022-10-20T06:00:30.742Z,100546.41
2022-10-20T06:02:32.523Z,100544.69
2022-10-20T06:04:34.297Z,100555.94
2022-10-20T06:06:36.327Z,100548.16
2022-10-20T06:08:37.952Z,100558.53
2022-10-20T06:10:39.551Z,100554.22
2022-10-20T06:12:41.275Z,100563.78
2022-10-20T06:14:42.898Z,100558.56
2022-10-20T06:16:45.043Z,100557.69
2022-10-20T06:18:46.804Z,100561.16
2022-10-20T06:20:48.444Z,100560.31
2022-10-20T06:22:50.103Z,100568.13
2022-10-20T06:24:51.820Z,100562.06
2022-10-20T06:27:00.891Z,100558.63
2022-10-20T06:29:04.955Z,100552.50
2022-10-20T06:31:16.995Z,100554.31
2022-10-20T06:33:18.581Z,100550.81
2022-10-20T06:35:20.193Z,100545.63
2022-10-20T06:37:21.846Z,100544.75
2022-10-20T06:39:24.690Z,100546.53
2022-10-20T06:41:27.577Z,100541.34
2022-10-20T06:43:29.273Z,100549.13
2022-10-20T06:45:31.132Z,100545.72
2022-10-20T06:47:32.830Z,100544.84
2022-10-20T06:49:34.573Z,100538.78
2022-10-20T06:51:37.533Z,100543.03
2022-10-20T06:53:42.694Z,100541.31
2022-10-20T06:56:02.323Z,100536.16
2022-10-20T06:58:17.059Z,100537.84
2022-10-20T07:00:18.904Z,100537.88
2022-10-20T07:02:21.933Z,100538.72
2022-10-20T07:04:23.956Z,100539.63
2022-10-20T07:06:30.832Z,100523.13
2022-10-20T07:08:34.976Z,100514.53
2022-10-20T07:10:36.663Z,100517.13
2022-10-20T07:12:38.810Z,100515.47
2022-10-20T07:14:40.583Z,100502.41
2022-10-20T07:16:42.318Z,100502.41
2022-10-20T07:20:51.254Z,100500.69
2022-10-20T07:22:52.973Z,100498.03
2022-10-20T07:24:54.722Z,100491.06
2022-10-20T07:27:06.435Z,100494.53
2022-10-20T07:29:09.719Z,100502.28
2022-10-20T07:31:20.782Z,100497.91
2022-10-20T07:33:22.899Z,100501.41
2022-10-20T07:35:24.585Z,100500.56
2022-10-20T07:37:26.274Z,100502.28
2022-10-20T07:39:28.815Z,100497.06
2022-10-20T07:41:31.490Z,100505.72
2022-10-20T07:43:33.200Z,100503.13
2022-10-20T07:45:34.945Z,100504.94
2022-10-20T07:47:38.288Z,100515.31
2022-10-20T07:49:45.102Z,100513.56
2022-10-20T07:51:47.027Z,100512.75
2022-10-20T07:53:49.558Z,100517.94
2022-10-20T07:55:51.194Z,100518.72
2022-10-20T07:57:52.954Z,100524.78
2022-10-20T07:59:54.644Z,100523.94
2022-10-20T08:01:58.904Z,100521.31
2022-10-20T08:04:01.667Z,100524.81
2022-10-20T08:06:04.801Z,100523.94
2022-10-20T08:08:06.581Z,100526.53
2022-10-20T08:10:08.682Z,100527.41
2022-10-20T08:12:10.351Z,100530.91
2022-10-20T08:14:11.977Z,100529.22
2022-10-20T08:16:17.604Z,100524.00
2022-10-20T08:18:19.356Z,100522.31
2022-10-20T08:20:33.285Z,100524.91
2022-10-20T08:22:35.744Z,100524.09
2022-10-20T08:24:37.563Z,100528.38
2022-10-20T08:26:39.322Z,100523.19
2022-10-20T08:28:41.158Z,100515.38
2022-10-20T08:30:42.824Z,100515.38
2022-10-20T08:32:44.654Z,100519.72
2022-10-20T08:34:46.708Z,100518.00
2022-10-20T08:36:48.382Z,100504.09
2022-10-20T08:38:50.016Z,100520.53
2022-10-20T08:40:51.899Z,100509.28
2022-10-20T08:42:54.326Z,100504.94
2022-10-20T08:45:00.370Z,100504.13
2022-10-20T08:47:04.142Z,100495.41
2022-10-20T08:49:20.009Z,100487.63
2022-10-20T08:51:24.429Z,100496.28
2022-10-20T08:53:27.636Z,100505.78
2022-10-20T08:55:33.756Z,100507.59
2022-10-20T08:57:36.685Z,100503.16
2022-10-20T08:59:39.609Z,100503.22
2022-10-20T09:01:41.642Z,100504.00
2022-10-20T09:03:44.156Z,100498.84
2022-10-20T09:05:49.861Z,100503.22
2022-10-20T09:07:52.552Z,100511.00
2022-10-20T09:10:02.745Z,100504.03
2022-10-20T09:12:07.342Z,100500.53
2022-10-20T09:14:11.130Z,100498.78
2022-10-20T09:16:41.613Z,100498.75
2022-10-20T09:19:01.319Z,100503.13
2022-10-20T09:21:09.110Z,100497.91
2022-10-20T09:23:35.261Z,100496.97
2022-10-20T09:25:37.161Z,100502.22
2022-10-20T09:27:43.003Z,100496.13
2022-10-20T09:29:45.673Z,100489.19
2022-10-20T09:31:55.294Z,100493.50
2022-10-20T09:34:00.057Z,100501.34
2022-10-20T09:36:14.613Z,100499.56
2022-10-20T09:38:22.589Z,100496.97
2022-10-20T09:40:26.603Z,100490.00
2022-10-20T09:42:35.460Z,100489.13
2022-10-20T09:44:49.905Z,100484.84
2022-10-20T09:46:54.504Z,100484.81
2022-10-20T09:48:57.534Z,100482.16
2022-10-20T09:51:00.447Z,100478.72
2022-10-20T09:53:06.584Z,100481.31
2022-10-20T09:55:25.230Z,100481.25
2022-10-20T09:57:27.171Z,100479.59
2022-10-20T09:59:44.509Z,100488.16
2022-10-20T10:02:00.525Z,100489.94
2022-10-20T10:04:02.305Z,100483.06
2022-10-20T10:06:28.360Z,100479.63
2022-10-20T10:08:45.148Z,100489.16
2022-10-20T10:11:02.335Z,100486.47
2022-10-20T10:15:33.951Z,100476.91
2022-10-20T10:17:41.880Z,100461.28
2022-10-20T10:19:52.520Z,100463.88
2022-10-20T10:22:00.492Z,100459.50
2022-10-20T10:24:04.360Z,100459.47
2022-10-20T10:26:34.793Z,100440.34
2022-10-20T10:28:39.343Z,100438.56
2022-10-20T10:30:45.764Z,100442.94
2022-10-20T10:32:49.989Z,100440.41
2022-10-20T10:35:04.894Z,100418.75
2022-10-20T10:37:14.229Z,100418.75
2022-10-20T10:39:16.573Z,100422.16
2022-10-20T10:41:29.335Z,100425.66
2022-10-20T10:43:55.401Z,100418.66
2022-10-20T10:45:57.029Z,100415.16
2022-10-20T10:48:16.455Z,100414.38
2022-10-20T10:50:27.083Z,100412.69
2022-10-20T10:52:56.832Z,100408.25
2022-10-20T10:55:43.754Z,100410.84
2022-10-20T10:58:02.489Z,100409.09
2022-10-20T11:00:15.129Z,100409.91
2022-10-20T11:02:39.062Z,100402.91
2022-10-20T11:05:02.557Z,100400.28
2022-10-20T11:07:40.772Z,100405.41
2022-10-20T11:09:59.866Z,100401.81
2022-10-20T11:12:13.274Z,100400.97
2022-10-20T11:14:36.234Z,100400.94
2022-10-20T11:16:59.592Z,100399.06
2022-10-20T11:19:30.737Z,100387.72
2022-10-20T11:22:02.683Z,100389.38
2022-10-20T11:24:07.375Z,100383.16
2022-10-20T11:26:23.119Z,100382.28
2022-10-20T11:28:32.020Z,100381.34
2022-10-20T11:30:34.252Z,100386.44
2022-10-20T11:33:09.097Z,100385.50
2022-10-20T11:35:22.986Z,100386.34
2022-10-20T11:37:36.692Z,100387.28
2022-10-20T11:40:10.701Z,100383.84
2022-10-20T11:42:30.746Z,100376.91
2022-10-20T11:44:39.482Z,100381.25
2022-10-20T11:47:02.543Z,100376.06
2022-10-20T11:49:04.590Z,100373.53
2022-10-20T11:51:31.150Z,100373.53
2022-10-20T11:53:35.696Z,100374.47
2022-10-20T11:56:02.313Z,100369.28
2022-10-20T11:58:36.784Z,100366.72
2022-10-20T12:00:54.048Z,100366.84
2022-10-20T12:03:24.903Z,100353.81
2022-10-20T12:05:47.616Z,100346.03
2022-10-20T12:08:29.610Z,100349.50
2022-10-20T12:10:43.067Z,100355.59
2022-10-20T12:12:50.513Z,100342.59
2022-10-20T12:15:02.568Z,100337.34
2022-10-20T12:17:13.143Z,100330.41
2022-10-20T12:19:21.751Z,100328.63
2022-10-20T12:21:56.789Z,100332.88
2022-10-20T12:24:03.216Z,100322.44
2022-10-20T12:26:24.787Z,100324.16
2022-10-20T12:28:29.525Z,100311.09
2022-10-20T12:30:43.014Z,100309.13
2022-10-20T12:32:53.592Z,100308.16
2022-10-20T12:34:56.891Z,100294.09
2022-10-20T12:37:29.427Z,100301.78
2022-10-20T12:39:31.111Z,100299.09
2022-10-20T12:41:35.720Z,100304.28
2022-10-20T12:43:53.202Z,100300.72
2022-10-20T12:45:59.577Z,100293.78
2022-10-20T12:48:03.129Z,100295.47
2022-10-20T12:50:28.127Z,100287.66
2022-10-20T12:52:40.417Z,100286.69
2022-10-20T12:54:48.346Z,100281.38
2022-10-20T12:57:05.139Z,100276.09
2022-10-20T12:59:19.951Z,100272.63
2022-10-20T13:01:21.768Z,100273.47
2022-10-20T13:03:32.522Z,100265.63
2022-10-20T13:05:42.609Z,100271.81
2022-10-20T13:07:47.093Z,100270.06
2022-10-20T13:09:59.017Z,100269.28
2022-10-20T13:12:04.801Z,100274.50
2022-10-20T13:14:12.588Z,100266.69
2022-10-20T13:16:20.345Z,100271.06
2022-10-20T13:18:27.962Z,100269.34
2022-10-20T13:20:46.810Z,100278.03
2022-10-20T13:22:53.028Z,100276.38
2022-10-20T13:24:56.848Z,100260.78
2022-10-20T13:27:10.235Z,100263.38
2022-10-20T13:29:19.160Z,100276.47
2022-10-20T13:31:33.013Z,100293.09
2022-10-20T13:34:03.794Z,100307.16
2022-10-20T13:36:19.199Z,100309.13
2022-10-20T13:38:31.227Z,100312.09
2022-10-20T13:40:39.703Z,100314.69
2022-10-20T13:42:52.942Z,100307.75
2022-10-20T13:45:31.732Z,100311.28
2022-10-20T13:47:52.214Z,100309.56
2022-10-20T13:50:11.219Z,100308.66
2022-10-20T13:52:15.837Z,100310.22
2022-10-20T13:54:31.785Z,100313.44
2022-10-20T13:56:46.395Z,100316.97
2022-10-20T13:59:17.834Z,100329.09
2022-10-20T14:01:24.421Z,100334.28
2022-10-20T14:03:26.351Z,100329.78
2022-10-20T14:05:31.714Z,100317.53
2022-10-20T14:07:41.799Z,100311.38
2022-10-20T14:09:46.782Z,100313.88
2022-10-20T14:11:55.939Z,100324.28
2022-10-20T14:14:01.641Z,100329.66
2022-10-20T14:16:16.189Z,100326.03
2022-10-20T14:18:39.919Z,100334.06
2022-10-20T14:20:42.012Z,100337.56
2022-10-20T14:22:44.967Z,100341.19
2022-10-20T14:24:48.640Z,100340.41
2022-10-20T14:26:51.632Z,100329.28
2022-10-20T14:28:54.471Z,100329.25
2022-10-20T14:30:56.527Z,100337.00
2022-10-20T14:32:58.862Z,100337.06
2022-10-20T14:35:14.648Z,100330.22
2022-10-20T14:37:38.132Z,100328.38
2022-10-20T14:39:40.964Z,100322.06
2022-10-20T14:41:46.550Z,100328.88
2022-10-20T14:43:52.263Z,100327.25
2022-10-20T14:46:00.567Z,100328.00
2022-10-20T14:48:02.745Z,100331.47
2022-10-20T14:50:05.614Z,100337.69
2022-10-20T14:52:20.386Z,100339.28
2022-10-20T14:54:30.303Z,100329.69
2022-10-20T14:56:32.373Z,100329.44
2022-10-20T14:58:54.394Z,100321.50
2022-10-20T15:01:19.971Z,100322.38
2022-10-20T15:03:21.915Z,100311.16
2022-10-20T15:05:26.457Z,100313.66
2022-10-20T15:07:35.444Z,100303.16
2022-10-20T15:09:43.962Z,100303.75
2022-10-20T15:11:45.746Z,100305.34
2022-10-20T15:13:53.062Z,100304.28
2022-10-20T15:15:55.643Z,100315.47
2022-10-20T15:18:06.512Z,100311.06
2022-10-20T15:20:40.411Z,100319.72
2022-10-20T15:22:42.708Z,100308.38
2022-10-20T15:24:46.501Z,100319.13
2022-10-20T15:26:48.281Z,100317.53
2022-10-20T15:28:50.535Z,100322.88
2022-10-20T15:30:52.599Z,100323.63
2022-10-20T15:32:54.841Z,100323.34
2022-10-20T15:34:56.623Z,100326.66
2022-10-20T15:37:07.649Z,100324.22
2022-10-20T15:39:09.592Z,100330.28
2022-10-20T15:41:28.298Z,100328.53
2022-10-20T15:43:30.163Z,100331.13
2022-10-20T15:45:40.693Z,100337.38
2022-10-20T15:47:42.640Z,100338.44
2022-10-20T15:49:44.435Z,100335.75
2022-10-20T15:51:47.702Z,100335.97
2022-10-20T15:53:50.169Z,100338.72
2022-10-20T15:55:51.995Z,100329.38
2022-10-20T15:57:54.973Z,100336.34
2022-10-20T15:59:56.823Z,100329.38
2022-10-20T16:01:58.628Z,100332.84
2022-10-20T16:04:26.300Z,100332.88
2022-10-20T16:06:28.353Z,100335.56
2022-10-20T16:08:30.276Z,100332.91
2022-10-20T16:10:32.215Z,100332.88
2022-10-20T16:12:35.198Z,100336.41
2022-10-20T16:14:38.316Z,100334.69
2022-10-20T16:16:40.153Z,100336.47
2022-10-20T16:18:42.052Z,100338.25
2022-10-20T16:20:43.810Z,100334.00
2022-10-20T16:22:45.671Z,100336.56
2022-10-20T16:24:48.048Z,100334.09
2022-10-20T16:26:49.924Z,100322.78
2022-10-20T16:28:51.759Z,100328.19
2022-10-20T16:31:02.468Z,100327.19
2022-10-20T16:33:04.146Z,100327.16
2022-10-20T16:35:06.499Z,100324.69
2022-10-20T16:37:08.594Z,100330.69
2022-10-20T16:39:11.893Z,100340.38
2022-10-20T16:41:15.752Z,100337.72
2022-10-20T16:43:17.568Z,100337.78
2022-10-20T16:45:19.418Z,100335.25
2022-10-20T16:47:21.309Z,100344.69
2022-10-20T16:49:23.083Z,100335.19
2022-10-20T16:51:24.885Z,100329.22
2022-10-20T16:53:26.686Z,100322.25
2022-10-20T16:55:28.663Z,100341.38
2022-10-20T16:57:38.120Z,100327.50
2022-10-20T16:59:41.409Z,100323.06
2022-10-20T17:01:43.305Z,100331.75
2022-10-20T17:03:47.868Z,100319.69
2022-10-20T17:05:57.417Z,100322.28
2022-10-20T17:07:59.234Z,100329.28
2022-10-20T17:10:00.994Z,100326.75
2022-10-20T17:12:02.855Z,100323.34
2022-10-20T17:14:04.710Z,100327.69
2022-10-20T17:16:18.131Z,100324.25
2022-10-20T17:18:21.001Z,100328.59
2022-10-20T17:20:22.936Z,100324.28
2022-10-20T17:22:24.813Z,100332.16
2022-10-20T17:24:26.693Z,100329.59
2022-10-20T17:26:33.365Z,100334.75
2022-10-20T17:28:37.453Z,100325.28
2022-10-20T17:30:46.547Z,100327.00
2022-10-20T17:32:48.288Z,100324.41
2022-10-20T17:34:50.156Z,100330.50
2022-10-20T17:37:01.942Z,100336.56
2022-10-20T17:39:11.038Z,100335.00
2022-10-20T17:41:15.624Z,100330.66
2022-10-20T17:43:18.835Z,100329.91
2022-10-20T17:45:20.745Z,100326.38
2022-10-20T17:47:22.486Z,100326.41
2022-10-20T17:49:24.318Z,100326.41
2022-10-20T17:51:29.088Z,100323.88
2022-10-20T17:53:35.547Z,100322.16
2022-10-20T17:55:37.372Z,100332.56
2022-10-20T17:57:39.234Z,100335.16
2022-10-20T17:59:52.427Z,100337.75
2022-10-20T18:01:56.636Z,100335.19
2022-10-20T18:04:04.996Z,100334.38
2022-10-20T18:06:10.817Z,100341.31
2022-10-20T18:08:12.809Z,100352.59
2022-10-20T18:10:15.034Z,100356.03
2022-10-20T18:12:16.929Z,100356.03
2022-10-20T18:14:19.244Z,100350.84
2022-10-20T18:16:21.602Z,100343.06
2022-10-20T18:18:23.502Z,100338.72
2022-10-20T18:20:25.184Z,100329.22
2022-10-20T18:22:27.585Z,100329.22
2022-10-20T18:24:30.164Z,100326.66
2022-10-20T18:26:35.762Z,100323.19
2022-10-20T18:28:43.096Z,100321.50
2022-10-20T18:30:47.477Z,100335.41
2022-10-20T18:32:49.118Z,100335.38
2022-10-20T18:34:50.935Z,100328.47
2022-10-20T18:37:03.664Z,100328.50
2022-10-20T18:39:06.222Z,100331.13
2022-10-20T18:41:09.008Z,100339.00
2022-10-20T18:43:10.668Z,100344.16
2022-10-20T18:45:12.328Z,100345.94
2022-10-20T18:47:13.963Z,100360.59
2022-10-20T18:49:19.775Z,100364.13
2022-10-20T18:51:22.118Z,100360.69
2022-10-20T18:53:24.768Z,100366.78
2022-10-20T18:55:26.512Z,100359.94
2022-10-20T18:57:31.301Z,100364.28
2022-10-20T18:59:33.137Z,100365.16
2022-10-20T19:01:37.653Z,100359.97
2022-10-20T19:03:40.678Z,100347.06
2022-10-20T19:05:42.358Z,100344.44
2022-10-20T19:07:44.043Z,100356.66
2022-10-20T19:09:45.877Z,100354.88
2022-10-20T19:13:56.056Z,100351.47
2022-10-20T19:15:59.596Z,100346.28
2022-10-20T19:18:01.740Z,100351.47
2022-10-20T19:20:03.780Z,100353.25
2022-10-20T19:22:05.448Z,100348.94
2022-10-20T19:24:19.488Z,100342.06
2022-10-20T19:26:25.393Z,100349.00
2022-10-20T19:28:27.076Z,100337.78
2022-10-20T19:30:34.439Z,100332.53
2022-10-20T19:32:40.240Z,100340.28
2022-10-20T19:34:51.287Z,100330.84
2022-10-20T19:37:03.500Z,100332.56
2022-10-20T19:39:10.911Z,100332.59
2022-10-20T19:41:36.200Z,100330.84
2022-10-20T19:43:39.139Z,100323.94
2022-10-20T19:45:40.945Z,100327.38
2022-10-20T19:47:42.587Z,100323.94
2022-10-20T19:49:45.273Z,100328.31
2022-10-20T19:51:47.170Z,100325.69
2022-10-20T19:53:49.520Z,100328.28
2022-10-20T19:55:51.398Z,100329.16
2022-10-20T19:57:53.721Z,100330.00
2022-10-20T19:59:55.505Z,100322.22
2022-10-20T20:01:57.194Z,100327.44
2022-10-20T20:03:59.901Z,100335.22
2022-10-20T20:06:11.127Z,100331.84
2022-10-20T20:08:12.927Z,100329.22
2022-10-20T20:10:41.689Z,100322.34
2022-10-20T20:13:05.229Z,100329.22
2022-10-20T20:17:45.279Z,100334.44
2022-10-20T20:20:09.622Z,100328.38
2022-10-20T20:22:32.643Z,100324.09
2022-10-20T20:24:34.310Z,100320.63
2022-10-20T20:43:16.950Z,100306.81
2022-10-20T20:45:18.605Z,100306.81
2022-10-20T20:47:20.257Z,100307.66
2022-10-20T20:49:21.936Z,100316.28
2022-10-20T20:51:25.228Z,100325.78
2022-10-20T20:53:27.186Z,100319.72
2022-10-20T20:55:29.245Z,100317.97
2022-10-20T20:57:30.922Z,100311.94
2022-10-20T20:59:32.571Z,100316.28
2022-10-20T21:01:34.371Z,100310.25
2022-10-20T21:03:36.386Z,100315.44
2022-10-20T21:05:38.195Z,100304.22
2022-10-20T21:07:40.069Z,100311.13
2022-10-20T21:09:41.873Z,100309.41
2022-10-20T21:11:43.603Z,100312.84
2022-10-20T21:13:46.720Z,100307.69
2022-10-20T21:15:48.338Z,100305.97
2022-10-20T21:17:49.965Z,100310.34
2022-10-20T21:19:51.659Z,100307.75
2022-10-20T21:22:01.444Z,100298.22
2022-10-20T21:24:04.796Z,100296.50
2022-10-20T21:26:07.963Z,100298.31
2022-10-20T21:28:09.629Z,100300.03
2022-10-20T21:30:11.529Z,100305.22
2022-10-20T21:32:13.230Z,100302.66
2022-10-20T21:34:14.984Z,100300.94
2022-10-20T21:36:22.595Z,100290.59
2022-10-20T21:38:29.168Z,100294.03
2022-10-20T21:40:31.829Z,100287.19
2022-10-20T21:42:33.466Z,100292.31
2022-10-20T21:44:35.209Z,100294.03
2022-10-20T21:46:47.523Z,100286.28
2022-10-20T21:48:51.761Z,100281.94
2022-10-20T21:50:53.396Z,100275.03
2022-10-20T21:52:55.054Z,100273.34
2022-10-20T21:54:56.710Z,100273.34
2022-10-20T21:57:00.600Z,100284.56
2022-10-20T21:59:02.838Z,100280.22
2022-10-20T22:01:13.581Z,100273.41
2022-10-20T22:03:15.143Z,100282.88
2022-10-20T22:05:16.909Z,100282.91
2022-10-20T22:07:18.576Z,100275.09
2022-10-20T22:09:21.507Z,100276.84
2022-10-20T22:11:24.786Z,100281.16
2022-10-20T22:13:26.550Z,100281.13
2022-10-20T22:15:28.178Z,100277.66
2022-10-20T22:17:29.855Z,100293.22
2022-10-20T22:19:31.610Z,100291.50
2022-10-20T22:21:37.717Z,100281.13
2022-10-20T22:23:39.549Z,100284.59
2022-10-20T22:25:41.251Z,100280.28
2022-10-20T22:27:42.971Z,100277.69
2022-10-20T22:29:44.615Z,100279.41
2022-10-20T22:31:46.699Z,100269.91
2022-10-20T22:33:49.237Z,100266.44
2022-10-20T22:35:50.856Z,100269.03
2022-10-20T22:37:53.122Z,100263.00
2022-10-20T22:39:54.763Z,100265.59
2022-10-20T22:41:56.459Z,100260.41
2022-10-20T22:43:58.500Z,100259.56
2022-10-20T22:46:00.295Z,100256.09
2022-10-20T22:48:02.022Z,100257.84
2022-10-20T22:50:04.147Z,100251.78
2022-10-20T22:52:05.800Z,100249.19
2022-10-20T22:54:08.570Z,100250.03
2022-10-20T22:56:15.677Z,100248.34
2022-10-20T22:58:17.430Z,100255.22
2022-10-20T23:00:20.311Z,100251.78
2022-10-20T23:02:22.006Z,100253.50
2022-10-20T23:04:23.699Z,100255.22
2022-10-20T23:06:26.402Z,100257.81
2022-10-20T23:08:30.638Z,100253.50
2022-10-20T23:10:34.416Z,100256.06
2022-10-20T23:12:36.427Z,100255.22
2022-10-20T23:14:38.300Z,100251.78
2022-10-20T23:16:39.994Z,100246.59
2022-10-20T23:18:41.740Z,100245.72
2022-10-20T23:20:43.376Z,100246.59
2022-10-20T23:22:45.738Z,100256.09
2022-10-20T23:24:48.022Z,100257.81
2022-10-20T23:26:51.103Z,100254.38
2022-10-20T23:28:53.076Z,100249.19
2022-10-20T23:31:05.914Z,100250.06
2022-10-20T23:33:07.540Z,100249.19
2022-10-20T23:35:09.766Z,100249.19
2022-10-20T23:37:11.588Z,100256.97
2022-10-20T23:39:13.281Z,100254.44
2022-10-20T23:41:15.178Z,100248.38
2022-10-20T23:43:16.915Z,100250.97
2022-10-20T23:45:18.580Z,100254.47
2022-10-20T23:47:20.322Z,100246.72
2022-10-20T23:49:21.926Z,100242.38
2022-10-20T23:51:23.559Z,100234.63
2022-10-20T23:53:25.638Z,100243.25
2022-10-20T23:55:27.286Z,100240.66
2022-10-20T23:57:28.976Z,100232.88
2022-10-20T23:59:30.658Z,100228.59
